This is the latest recevied weather packets stored in our database for station/object HS5FXK-3. If no packets are shown the sender has not sent any weather packets the latest 1 day(s).
| Time | Temp. | Humidity | Pressure | Rain* | Wind** | Luminosity | Snow |
|---|---|---|---|---|---|---|---|
| 1778083352 | 28.89° C | 98% | 977 hPa | - | - | 0 W/m² | - |
| 1778082440 | 28.89° C | 95% | 978 hPa | - | - | 0 W/m² | - |
| 1778081528 | 29.44° C | 93% | 978 hPa | - | - | 0 W/m² | - |
| 1778080785 | 28.89° C | 95% | 978 hPa | - | - | 0 W/m² | - |
| 1778077136 | 29.44° C | 90% | 976 hPa | - | - | 0 W/m² | - |
| 1778076224 | 29.44° C | 91% | 977 hPa | - | - | 0 W/m² | - |
| 1778073487 | 29.44° C | 94% | 976 hPa | - | - | 0 W/m² | - |
| 1778072575 | 30° C | 95% | 975 hPa | - | - | 0 W/m² | - |
| 1778068729 | 31.11° C | 71% | 976 hPa | - | - | 0 W/m² | - |
| 1778068531 | 32.22° C | 61% | 975 hPa | - | - | 0 W/m² | - |
| 1778066511 | 35.56° C | 50% | 974 hPa | - | - | 0 W/m² | - |
| 1778062657 | 37.22° C | 40% | 973 hPa | - | - | 0 W/m² | - |
| 1778059153 | 39.44° C | 34% | 974 hPa | - | - | 0 W/m² | - |
| 1778055950 | 41.11° C | 32% | 974 hPa | - | - | 0 W/m² | - |
| 1778054372 | 41.11° C | 33% | 975 hPa | - | - | 0 W/m² | - |
| 1778053426 | 41.11° C | 33% | 975 hPa | - | - | 0 W/m² | - |
| 1778052939 | 42.22° C | 35% | 975 hPa | - | - | 0 W/m² | - |
| 1778051011 | 41.11° C | 35% | 976 hPa | - | - | 0 W/m² | - |
| 1778049847 | 41.67° C | 35% | 976 hPa | - | - | 0 W/m² | - |
| 1778048941 | 41.11° C | 37% | 977 hPa | - | - | 0 W/m² | - |
| 1778048478 | 42.22° C | 36% | 977 hPa | - | - | 0 W/m² | - |
| 1778047820 | 41.67° C | 37% | 977 hPa | - | - | 0 W/m² | - |
| 1778047113 | 41.67° C | 36% | 978 hPa | - | - | 0 W/m² | - |
| 1778046200 | 40.56° C | 38% | 978 hPa | - | - | 0 W/m² | - |
| 1778045377 | 40° C | 39% | 978 hPa | - | - | 0 W/m² | - |
* Rain since midnight (hover to see other rain measurements)
** Current wind speed in m/s (hover to see current wind gust speed)